Rawlins, WY

3:40 PM MDT on September 21, 2014 (GMT -0600)
Elk Mountain | Change Station
CLOSE
Current Station
Airport
Location: Elk Mountain,
Elevation: 7300 ft
Nearby Weather Stations

Elev 7300 ft 41.73 °N, 106.46 °W | Updated 5 minutes ago

Partly Cloudy
Partly Cloudy
72 °F
Feels Like 72 °F
N
20
Wind Variable Wind from West
Gusts 26 mph

Today
High -- | Low -- °F
--% Chance of Precip.
Yesterday
High -- | Low -- °F
Precip. -- in
6:55 AM 7:07 PM
Waning Crescent, 5% visible
Pressure 30.33 in
Visibility 10.0 miles
Clouds Clear
Dew Point 36 °F
Humidity 27%
Rainfall 0.00 in
Snow Depth 0 in , 1 in , 0 in
UV 5 out of 12
Pollen 4.00 out of 12
Air Quality Not available.
Flu Activity Not available.
METAR KEHY 212135Z AUTO 26017G23KT 10SM CLR 22/02 A3033 RMK AO2 LTG DSNT SE

More Conditions Fewer Conditions

Pressure 30.33 in
Visibility 10.0 miles
Clouds Clear
Dew Point 36 °F
Humidity 27%
Rainfall 0.00 in
Snow Depth 0 in , 1 in , 0 in
UV 5 out of 12
Pollen 4.00 out of 12
Air Quality Not available.
Flu Activity Not available.
METAR KEHY 212135Z AUTO 26017G23KT 10SM CLR 22/02 A3033 RMK AO2 LTG DSNT SE

More Conditions Fewer Conditions

10-Day Weather Forecast

Almanac

Astronomy

Sep. 21, 2014 Rise Set
Actual Time 6:55 AM MDT 7:07 PM MDT
Civil Twilight 6:27 AM MDT 7:35 PM MDT
Nautical Twilight 5:54 AM MDT 8:08 PM MDT
Astronomical Twilight 5:21 AM MDT 8:41 PM MDT
Moon 4:30 AM MDT 5:46 PM MDT
Length of Visible Light 13h 07m
Length of Day
12h 12m
Tomorrow will be 2m 47s shorter.
Waning Crescent, 5% of the Moon is Illuminated
Today
Waning Crescent
Sep 24
New
Oct 1
First Quarter
Oct 8
Full
Oct 15
Last Quarter

Today's Extremes

State Highs State Lows

Community

WunderPhotos

Upload Photos

1,755,266 photos uploaded!

Nearby

Snow Depth

Station Depth Elevation
Gros Ventre Summit 0 in 8750 ft
Kendall R.S. 1 in 7740 ft
North French Creek 0 in 10130 ft
Hams Fork 0 in 7840 ft
Spring Creek Divide 0 in 9000 ft

Earthquake Activity

City Distance Mag. Time & Date
No recent earthquake activity has been reported nearby.
Minimum magnitude displayed is 2.5.

Coastal Water Temperatures

Place Temperature
No Stations Reporting

Nearby Weather Stations